Time;durP1;ratioP1;P1;durP2;ratioP2;P2;SDS_P1;SDS_P2;PMS_P1;PMS_P2;Temp;Humidity;BMP_temperature;BMP_pressure;BME280_temperature;BME280_humidity;BME280_pressure;Samples;Min_cycle;Max_cycle;Signal;HPM_P1;HPM_P2
2022/07/29 00:01:05;;;;;;;0.73;0.73;;;;;;;17.75;53.40;101578.16;4975028;28;20031;-84
2022/07/29 00:03:30;;;;;;;1.58;0.77;;;;;;;17.72;53.48;101587.00;4976176;28;20463;-84
2022/07/29 00:05:56;;;;;;;0.80;0.80;;;;;;;17.72;53.75;101589.63;4975194;28;20023;-84
2022/07/29 00:08:21;;;;;;;0.83;0.83;;;;;;;17.74;53.90;101594.81;4975733;28;20058;-84
2022/07/29 00:10:46;;;;;;;0.60;0.60;;;;;;;17.72;53.17;101589.63;4976357;28;20415;-84
2022/07/29 00:13:12;;;;;;;0.57;0.53;;;;;;;17.70;53.26;101590.59;4975305;28;20026;-84
2022/07/29 00:15:37;;;;;;;0.50;0.50;;;;;;;17.68;52.82;101588.00;4975793;28;20031;-84
2022/07/29 00:18:03;;;;;;;0.40;0.40;;;;;;;17.70;54.05;101588.81;4974589;28;20065;-84
2022/07/29 00:20:34;;;;;;;0.50;0.50;;;;;;;17.67;53.63;101578.44;4967932;28;20074;-84
2022/07/29 00:22:59;;;;;;;0.60;0.60;;;;;;;17.66;53.45;101579.34;4975586;28;20035;-84
2022/07/29 00:25:24;;;;;;;1.80;0.80;;;;;;;17.64;54.71;101575.91;4975111;28;20084;-84
2022/07/29 00:27:50;;;;;;;0.50;0.50;;;;;;;17.62;53.97;101572.47;4975414;28;20027;-83
2022/07/29 00:30:15;;;;;;;1.10;1.00;;;;;;;17.59;54.28;101570.81;4975692;28;20484;-84
2022/07/29 00:32:40;;;;;;;0.70;0.70;;;;;;;17.59;54.20;101576.06;4974882;28;20053;-84
2022/07/29 00:37:51;;;;;;;1.15;0.90;;;;;;;17.60;54.49;101579.53;4975655;28;20113;-83
2022/07/29 00:40:16;;;;;;;0.60;0.60;;;;;;;17.59;56.33;101583.94;4974681;28;20392;-84
2022/07/29 00:42:47;;;;;;;0.80;0.70;;;;;;;17.59;54.23;101585.69;4975823;28;20069;-83
2022/07/29 00:45:13;;;;;;;0.63;0.63;;;;;;;17.59;53.94;101590.94;4974842;28;20435;-83
2022/07/29 00:47:38;;;;;;;0.60;0.60;;;;;;;17.61;54.19;101594.38;4974617;28;20027;-83
2022/07/29 00:50:05;;;;;;;0.70;0.70;;;;;;;17.63;54.17;101604.81;4974964;28;20387;-84
2022/07/29 00:52:33;;;;;;;0.60;0.45;;;;;;;17.64;54.78;101612.66;4974609;28;20031;-83
2022/07/29 00:54:58;;;;;;;0.43;0.43;;;;;;;17.65;54.87;101621.38;4974237;28;20069;-84
2022/07/29 00:57:24;;;;;;;0.63;0.63;;;;;;;17.65;54.77;101626.63;4975222;28;20429;-84
2022/07/29 00:59:49;;;;;;;0.30;0.30;;;;;;;17.63;55.95;101634.56;4974812;28;20031;-84
2022/07/29 01:02:14;;;;;;;0.60;0.60;;;;;;;17.58;56.38;101637.34;4974142;28;20022;-83
2022/07/29 01:04:40;;;;;;;0.50;0.50;;;;;;;17.50;56.18;101636.72;4975318;28;20023;-84
2022/07/29 01:07:07;;;;;;;0.60;0.60;;;;;;;17.45;56.19;101618.47;4975231;28;20027;-84
2022/07/29 01:09:33;;;;;;;1.52;0.90;;;;;;;17.41;55.65;101610.75;4974575;28;20029;-84
2022/07/29 01:11:59;;;;;;;0.82;0.82;;;;;;;17.38;56.75;101601.22;4974399;28;20066;-84
2022/07/29 01:14:25;;;;;;;0.80;0.80;;;;;;;17.36;55.71;101602.19;4974323;28;20415;-84
2022/07/29 01:16:55;;;;;;;0.70;0.70;;;;;;;17.36;55.77;101594.31;4974482;28;20045;-84
2022/07/29 01:19:49;;;;;;;2.75;1.70;;;;;;;17.23;58.64;101575.47;4974654;28;20293;-83
2022/07/29 01:22:45;;;;;;;3.75;2.28;;;;;;;17.07;59.08;101554.09;4954742;29;20030;-84
2022/07/29 01:25:35;;;;;;;3.90;2.08;;;;;;;17.02;58.27;101546.38;4955021;29;20043;-84
2022/07/29 01:28:03;;;;;;;2.25;1.98;;;;;;;16.99;57.94;101543.88;4955201;29;20387;-84
2022/07/29 01:30:30;;;;;;;4.80;2.03;;;;;;;16.95;59.50;101542.25;4954477;29;20082;-83
2022/07/29 01:33:00;;;;;;;2.13;1.80;;;;;;;16.93;58.73;101538.78;4955166;29;20121;-84
2022/07/29 01:35:35;;;;;;;1.70;1.60;;;;;;;16.93;58.30;101534.41;4954619;29;20023;-84
2022/07/29 01:38:07;;;;;;;2.63;1.70;;;;;;;16.89;59.99;101524.06;4954679;29;20046;-85
2022/07/29 01:40:49;;;;;;;1.75;1.55;;;;;;;16.83;61.26;101512.84;4955323;29;20038;-84
2022/07/29 01:43:18;;;;;;;3.45;2.10;;;;;;;16.73;60.84;101510.56;4954165;29;20431;-84
2022/07/29 01:45:56;;;;;;;4.60;2.50;;;;;;;16.60;62.22;101510.94;4964533;28;20035;-83
2022/07/29 01:48:26;;;;;;;2.88;2.00;;;;;;;16.54;63.36;101505.88;4974025;28;20542;-83
2022/07/29 01:50:58;;;;;;;2.50;1.98;;;;;;;16.47;62.45;101497.34;4973399;28;20102;-83
2022/07/29 01:53:34;;;;;;;3.58;2.10;;;;;;;16.45;63.12;101496.50;4974336;28;20031;-83
2022/07/29 01:56:01;;;;;;;1.80;1.70;;;;;;;16.44;63.62;101496.56;4973868;28;20554;-84
2022/07/29 01:58:29;;;;;;;2.50;2.00;;;;;;;16.40;62.91;101495.81;4973311;28;20035;-84
2022/07/29 02:00:58;;;;;;;2.42;2.00;;;;;;;16.42;63.13;101493.13;4973631;28;20030;-84
2022/07/29 02:03:24;;;;;;;1.80;1.70;;;;;;;16.42;62.58;101491.38;4971952;28;20102;-84
2022/07/29 02:05:51;;;;;;;;;;;;;;;16.43;62.11;101489.63;4970171;28;20119;-83
2022/07/29 02:08:19;;;;;;;1.50;1.40;;;;;;;16.45;61.74;101498.28;4970745;28;19921;-84
2022/07/29 02:10:45;;;;;;;1.13;1.02;;;;;;;16.49;61.20;101499.94;4973132;28;20205;-83
2022/07/29 02:13:13;;;;;;;1.05;1.00;;;;;;;16.52;60.93;101503.31;4972823;28;20479;-83
2022/07/29 02:15:41;;;;;;;1.00;1.00;;;;;;;16.56;61.35;101497.94;4974036;28;20031;-84
2022/07/29 02:18:17;;;;;;;0.90;0.90;;;;;;;16.56;61.71;101490.09;4973164;28;20030;-84
2022/07/29 02:20:50;;;;;;;0.75;0.75;;;;;;;16.58;62.65;101488.28;4974095;28;20026;-84
2022/07/29 02:23:20;;;;;;;0.93;0.93;;;;;;;16.55;61.13;101488.41;4973779;28;20427;-83
2022/07/29 02:25:49;;;;;;;1.30;1.20;;;;;;;16.54;62.31;101490.16;4973393;28;20027;-84
2022/07/29 02:28:17;;;;;;;1.98;1.60;;;;;;;16.51;61.30;101488.50;4974166;28;20078;-84
2022/07/29 02:30:43;;;;;;;1.45;1.35;;;;;;;16.51;61.18;101485.88;4973499;28;20023;-84
2022/07/29 02:33:11;;;;;;;1.17;1.13;;;;;;;16.55;62.32;101494.50;4972340;28;20037;-82
2022/07/29 02:35:47;;;;;;;1.50;1.40;;;;;;;16.55;61.14;101504.13;4973876;28;20062;-84
2022/07/29 02:41:01;;;;;;;0.70;0.70;;;;;;;16.58;61.45;101499.66;4972684;28;20038;-83
2022/07/29 02:43:27;;;;;;;0.77;0.77;;;;;;;16.59;61.12;101490.00;4973667;28;20023;-84
2022/07/29 02:45:54;;;;;;;0.90;0.90;;;;;;;16.57;61.71;101490.06;4973110;28;20078;-83
2022/07/29 02:48:25;;;;;;;1.10;1.10;;;;;;;16.51;61.40;101485.00;4973444;28;20033;-83
2022/07/29 02:50:59;;;;;;;1.35;1.10;;;;;;;16.50;62.67;101484.16;4973017;28;20403;-84
2022/07/29 02:53:26;;;;;;;1.55;1.45;;;;;;;16.46;63.74;101482.50;4972825;28;20460;-83
2022/07/29 02:55:57;;;;;;;3.40;1.77;;;;;;;16.35;64.89;101482.84;4973055;28;20038;-82
2022/07/29 02:58:34;;;;;;;2.30;1.85;;;;;;;16.26;63.78;101477.00;4973543;28;20081;-83
2022/07/29 03:01:08;;;;;;;2.10;1.50;;;;;;;16.23;64.49;101480.59;4972353;28;20038;-83
2022/07/29 03:03:37;;;;;;;2.15;1.65;;;;;;;16.23;62.68;101490.19;4974091;28;20023;-84
2022/07/29 03:06:04;;;;;;;1.40;1.30;;;;;;;16.26;63.84;101497.97;4973250;28;20085;-84
2022/07/29 03:08:32;;;;;;;1.02;1.02;;;;;;;16.27;62.56;101503.16;4972347;28;20039;-84
2022/07/29 03:10:58;;;;;;;0.90;0.90;;;;;;;16.30;61.96;101502.22;4973392;28;20078;-83
2022/07/29 03:13:24;;;;;;;0.80;0.80;;;;;;;16.31;61.93;101496.94;4973636;28;20438;-84
2022/07/29 03:15:51;;;;;;;0.90;0.90;;;;;;;16.32;62.09;101493.41;4972946;28;20026;-84
2022/07/29 03:18:19;;;;;;;0.70;0.70;;;;;;;16.34;62.06;101494.22;4973250;28;20070;-83
2022/07/29 03:20:45;;;;;;;0.82;0.80;;;;;;;16.36;62.08;101495.03;4973559;28;20031;-83
2022/07/29 03:23:10;;;;;;;0.77;0.77;;;;;;;16.39;62.25;101491.47;4973088;28;20031;-84
2022/07/29 03:25:36;;;;;;;0.80;0.80;;;;;;;16.41;62.26;101500.16;4976765;28;20514;-83
2022/07/29 03:28:13;;;;;;;1.40;1.30;;;;;;;16.36;63.34;101488.94;4975447;28;20035;-83
2022/07/29 03:30:42;;;;;;;2.45;1.50;;;;;;;16.27;66.10;101491.81;4977273;28;20027;-84
2022/07/29 03:33:07;;;;;;;1.67;1.58;;;;;;;16.23;64.10;101493.69;4976738;28;20038;-83
2022/07/29 03:35:32;;;;;;;2.30;1.67;;;;;;;16.14;66.89;101497.41;4975791;28;20039;-83
2022/07/29 03:37:58;;;;;;;3.67;2.03;;;;;;;16.04;66.67;101501.19;4976162;28;20038;-83
2022/07/29 03:40:46;;;;;;;3.60;2.03;;;;;;;15.96;65.67;101497.94;4976751;28;20030;-84
2022/07/29 03:43:15;;;;;;;1.90;1.75;;;;;;;15.92;66.45;101496.28;4975563;28;20097;-84
2022/07/29 03:45:53;;;;;;;2.75;1.88;;;;;;;15.89;65.60;101500.69;4976241;28;20034;-83
2022/07/29 03:48:24;;;;;;;1.30;1.30;;;;;;;15.89;65.25;101499.84;4976648;28;20049;-84
2022/07/29 03:50:50;;;;;;;1.20;1.20;;;;;;;15.85;64.82;101493.84;4975236;28;20491;-83
2022/07/29 03:53:29;;;;;;;1.00;1.00;;;;;;;15.85;64.88;101499.09;4976453;28;20081;-83
2022/07/29 03:55:59;;;;;;;1.23;0.90;;;;;;;15.87;64.30;101499.91;4976051;28;20044;-84
2022/07/29 03:58:26;;;;;;;0.93;0.93;;;;;;;15.90;65.20;101491.09;4976434;28;20106;-84
2022/07/29 04:01:18;;;;;;;1.00;1.00;;;;;;;15.88;66.22;101483.28;4976090;28;20045;-83
2022/07/29 04:03:47;;;;;;;1.05;1.02;;;;;;;15.86;65.23;101484.22;4972018;28;20039;-84
2022/07/29 04:06:23;;;;;;;1.33;1.15;;;;;;;15.84;64.21;101484.28;4975676;28;20031;-84
2022/07/29 04:08:48;;;;;;;0.73;0.73;;;;;;;15.85;64.38;101485.13;4976506;28;20035;-83
2022/07/29 04:11:16;;;;;;;1.00;1.00;;;;;;;15.83;64.63;101486.88;4975129;28;20027;-84
2022/07/29 04:13:41;;;;;;;1.05;1.05;;;;;;;15.84;65.09;101492.13;4975967;28;20081;-84
2022/07/29 04:16:07;;;;;;;0.63;0.63;;;;;;;15.84;67.15;101489.50;4975716;28;20026;-84
2022/07/29 04:18:32;;;;;;;1.90;1.00;;;;;;;15.83;65.14;101487.75;4975680;28;20037;-83
2022/07/29 04:21:00;;;;;;;0.90;0.90;;;;;;;15.82;64.97;101480.81;4975682;28;20035;-84
2022/07/29 04:23:26;;;;;;;0.75;0.75;;;;;;;15.81;64.69;101486.94;4976075;28;20121;-84
2022/07/29 04:25:51;;;;;;;0.67;0.67;;;;;;;15.83;66.37;101486.88;4974709;28;20543;-84
2022/07/29 04:28:16;;;;;;;1.47;1.37;;;;;;;15.78;67.45;101488.78;4975927;28;20427;-84
2022/07/29 04:30:42;;;;;;;3.87;1.60;;;;;;;15.74;66.78;101485.41;4975500;28;20031;-84
2022/07/29 04:33:07;;;;;;;1.53;1.43;;;;;;;15.70;65.09;101491.59;4974977;28;20038;-83
2022/07/29 04:35:37;;;;;;;1.57;1.30;;;;;;;15.69;67.81;101498.59;4974939;28;20117;-84
2022/07/29 04:38:04;;;;;;;1.75;1.27;;;;;;;15.66;66.58;101498.69;4975413;28;20388;-84
2022/07/29 04:40:29;;;;;;;1.52;1.42;;;;;;;15.68;66.06;101511.72;4974629;28;20061;-84
2022/07/29 04:42:54;;;;;;;1.20;1.13;;;;;;;15.67;66.98;101505.63;4975208;28;20067;-83
2022/07/29 04:45:20;;;;;;;1.40;1.30;;;;;;;15.66;66.44;101511.75;4975165;28;20396;-84
2022/07/29 04:47:45;;;;;;;1.50;1.40;;;;;;;15.65;67.64;101507.41;4974741;28;20062;-83
2022/07/29 04:50:11;;;;;;;1.70;1.60;;;;;;;15.63;67.31;101511.81;4975121;28;20066;-84
2022/07/29 04:52:36;;;;;;;1.33;1.23;;;;;;;15.62;66.42;101504.88;4974824;28;20083;-84
2022/07/29 04:55:06;;;;;;;0.97;0.97;;;;;;;15.63;66.87;101498.75;4975130;28;20105;-84
2022/07/29 04:57:32;;;;;;;1.23;1.13;;;;;;;15.64;66.36;101494.38;4974899;28;20054;-84
2022/07/29 04:59:57;;;;;;;1.50;1.40;;;;;;;15.63;66.89;101509.22;4974125;28;20027;-84
2022/07/29 05:02:22;;;;;;;1.57;1.47;;;;;;;15.59;67.91;101518.06;4975378;28;20065;-85
2022/07/29 05:04:48;;;;;;;1.27;1.10;;;;;;;15.58;66.69;101535.50;4974972;28;20029;-84
2022/07/29 05:07:14;;;;;;;1.70;1.10;;;;;;;15.62;66.27;101540.66;4974144;28;20026;-84
2022/07/29 05:09:39;;;;;;;1.43;1.33;;;;;;;15.62;69.22;101545.91;4975447;28;20022;-84
2022/07/29 05:12:05;;;;;;;1.77;1.67;;;;;;;15.59;67.17;101542.44;4974801;28;20491;-84
2022/07/29 05:14:30;;;;;;;1.87;1.63;;;;;;;15.56;68.36;101545.13;4974424;28;20054;-85
2022/07/29 05:16:56;;;;;;;2.10;1.53;;;;;;;15.54;70.93;101557.38;4974669;28;20025;-84
2022/07/29 05:19:22;;;;;;;1.70;1.60;;;;;;;15.53;68.16;101557.44;4975053;28;20105;-84
2022/07/29 05:21:47;;;;;;;1.60;1.50;;;;;;;15.52;67.64;101546.13;4974300;28;20535;-84
2022/07/29 05:24:13;;;;;;;2.60;1.60;;;;;;;15.56;68.95;101549.53;4974059;28;20029;-84
2022/07/29 05:26:39;;;;;;;1.40;1.40;;;;;;;15.58;68.08;101548.56;4974933;28;20368;-85
2022/07/29 05:29:05;;;;;;;1.80;1.70;;;;;;;15.55;69.25;101548.66;4972971;28;20031;-84
2022/07/29 05:31:30;;;;;;;2.83;1.97;;;;;;;15.57;68.39;101549.47;4974839;28;20187;-83
2022/07/29 05:33:58;;;;;;;1.60;1.50;;;;;;;15.59;67.79;101557.31;4973768;28;20041;-83
2022/07/29 05:36:24;;;;;;;1.60;1.50;;;;;;;15.59;69.79;101554.69;4973930;28;20033;-81
2022/07/29 05:38:50;;;;;;;2.50;1.93;;;;;;;15.62;67.71;101553.75;4974084;28;20118;-82
2022/07/29 05:41:16;;;;;;;1.63;1.52;;;;;;;15.66;67.92;101545.78;4974312;28;20034;-82
2022/07/29 05:43:41;;;;;;;1.87;1.60;;;;;;;15.70;68.32;101549.16;4974205;28;20027;-90
2022/07/29 05:46:06;;;;;;;2.47;1.93;;;;;;;15.67;69.58;101551.84;4974135;28;20179;-82
2022/07/29 05:48:32;;;;;;;1.90;1.80;;;;;;;15.66;68.02;101555.38;4972666;28;20165;-82
2022/07/29 05:50:57;;;;;;;2.57;2.03;;;;;;;15.68;69.89;101557.06;4973433;28;20051;-81
2022/07/29 05:53:22;;;;;;;2.20;2.00;;;;;;;15.67;68.08;101562.31;4974422;28;20435;-82
2022/07/29 05:55:49;;;;;;;2.97;2.10;;;;;;;15.73;67.59;101554.34;4973630;28;20027;-81
2022/07/29 05:58:15;;;;;;;2.13;1.90;;;;;;;15.78;67.58;101549.81;4974162;28;20065;-79
2022/07/29 06:00:40;;;;;;;1.90;1.80;;;;;;;15.83;68.06;101552.31;4973974;28;20054;-80
2022/07/29 06:03:06;;;;;;;1.87;1.70;;;;;;;15.89;66.60;101541.72;4973174;28;20484;-81
2022/07/29 06:05:31;;;;;;;3.20;2.43;;;;;;;15.88;67.94;101547.88;4974325;28;20082;-81
2022/07/29 06:07:56;;;;;;;3.67;2.47;;;;;;;15.86;69.50;101545.31;4973867;28;20026;-81
2022/07/29 06:10:31;;;;;;;3.40;2.60;;;;;;;15.89;68.42;101546.97;4972903;28;20434;-80
2022/07/29 06:12:56;;;;;;;2.60;2.40;;;;;;;15.91;68.33;101539.94;4973532;28;20031;-80
2022/07/29 06:17:49;;;;;;;2.30;2.00;;;;;;;16.00;67.91;101542.31;4951965;29;20046;-80
2022/07/29 06:20:15;;;;;;;3.13;2.50;;;;;;;16.06;69.24;101549.97;4954611;29;20531;-81
2022/07/29 06:22:40;;;;;;;2.40;2.20;;;;;;;16.10;68.69;101560.38;4954568;29;20114;-81
2022/07/29 06:25:06;;;;;;;2.23;2.03;;;;;;;16.13;69.49;101552.44;4953811;29;20476;-89
2022/07/29 06:27:31;;;;;;;3.40;2.57;;;;;;;16.15;70.29;101555.91;5019771;23;20055;-90
2022/07/29 06:29:56;;;;;;;2.50;2.20;;;;;;;16.18;69.93;101553.16;4978937;28;20281;-92
2022/07/29 06:32:22;;;;;;;2.73;1.90;;;;;;;16.25;67.94;101548.63;4993467;28;20502;-84
2022/07/29 06:34:47;;;;;;;2.17;2.00;;;;;;;16.34;69.47;101544.00;4993163;28;20035;-84
2022/07/29 06:37:12;;;;;;;2.00;1.80;;;;;;;16.39;68.45;101546.47;4992416;28;20479;-83
2022/07/29 06:39:38;;;;;;;3.00;2.30;;;;;;;16.43;68.41;101555.09;5038204;23;20057;-83
2022/07/29 06:42:04;;;;;;;2.60;2.20;;;;;;;16.46;68.01;101550.63;4980289;23;20086;-83
2022/07/29 06:44:29;;;;;;;2.40;2.10;;;;;;;16.51;67.61;101545.25;4973605;28;20042;-84
2022/07/29 06:46:55;;;;;;;1.90;1.80;;;;;;;16.60;67.55;101546.75;4972412;28;20022;-83
2022/07/29 06:49:30;;;;;;;1.63;1.52;;;;;;;16.70;66.80;101556.06;4973237;28;20034;-84
2022/07/29 06:51:55;;;;;;;1.50;1.40;;;;;;;16.81;67.18;101555.75;4972767;28;20415;-83
2022/07/29 06:54:21;;;;;;;2.83;1.90;;;;;;;16.91;67.07;101564.19;4973379;28;20027;-83
2022/07/29 06:57:05;;;;;;;1.80;1.70;;;;;;;16.95;66.76;101556.22;4973602;28;20200;-83
2022/07/29 06:59:32;;;;;;;2.30;2.10;;;;;;;16.98;66.81;101561.38;4975157;28;20037;-84
2022/07/29 07:01:57;;;;;;;2.05;1.85;;;;;;;16.99;66.75;101564.84;4977033;28;20065;-84
2022/07/29 07:04:34;;;;;;;3.13;2.53;;;;;;;16.97;66.88;101566.66;4977198;28;20098;-83
2022/07/29 07:07:00;;;;;;;3.72;2.20;;;;;;;16.95;66.65;101566.69;4976594;28;20054;-84
2022/07/29 07:09:40;;;;;;;2.23;1.90;;;;;;;16.95;66.68;101573.72;4976743;28;20054;-82
2022/07/29 07:12:05;;;;;;;1.88;1.75;;;;;;;16.92;66.82;101566.78;4976904;28;20034;-88
2022/07/29 07:14:31;;;;;;;1.70;1.60;;;;;;;16.93;66.08;101567.63;4976899;28;20106;-83
2022/07/29 07:17:08;;;;;;;1.90;1.80;;;;;;;16.90;66.54;101565.09;4976932;28;20498;-82
2022/07/29 07:19:33;;;;;;;3.05;2.22;;;;;;;16.85;67.31;101573.09;4977145;28;20041;-83
2022/07/29 07:21:59;;;;;;;2.20;2.00;;;;;;;16.76;66.39;101565.50;4975645;28;20483;-83
2022/07/29 07:24:24;;;;;;;2.30;2.10;;;;;;;16.78;66.50;101568.94;4977258;28;20034;-84
2022/07/29 07:26:49;;;;;;;1.77;1.67;;;;;;;16.80;67.32;101578.47;4976490;28;20068;-83
2022/07/29 07:29:24;;;;;;;1.90;1.80;;;;;;;16.79;67.45;101575.91;4975778;28;20019;-84
2022/07/29 07:31:49;;;;;;;4.32;2.53;;;;;;;16.75;67.61;101572.53;4976196;28;20085;-82
2022/07/29 07:34:14;;;;;;;2.43;2.20;;;;;;;16.70;68.15;101574.41;4976014;28;20034;-84
2022/07/29 07:36:40;;;;;;;3.57;2.27;;;;;;;16.71;67.64;101568.28;4976878;28;20046;-83
2022/07/29 07:39:05;;;;;;;3.93;2.80;;;;;;;16.73;68.89;101570.84;4976381;28;20479;-83
2022/07/29 07:41:42;;;;;;;3.67;2.60;;;;;;;16.74;67.58;101568.19;4975867;28;20375;-83
2022/07/29 07:44:07;;;;;;;3.53;2.50;;;;;;;16.86;68.62;101577.44;4976351;28;20510;-83
2022/07/29 07:46:32;;;;;;;8.03;3.87;;;;;;;17.05;67.75;101579.53;4976640;28;20034;-84
2022/07/29 07:48:58;;;;;;;6.93;4.07;;;;;;;17.21;67.92;101574.69;4975394;28;20031;-83
2022/07/29 07:51:23;;;;;;;7.97;4.03;;;;;;;17.44;67.25;101582.69;4976666;28;20027;-82
2022/07/29 07:53:50;;;;;;;5.03;3.30;;;;;;;17.58;66.79;101576.09;4976031;28;20039;-83
2022/07/29 07:56:15;;;;;;;;;;;;;;;17.91;65.94;101581.13;4976180;28;20039;-84
2022/07/29 07:58:40;;;;;;;3.67;2.60;;;;;;;18.21;65.62;101586.25;4975510;28;19925;-85
2022/07/29 08:01:06;;;;;;;3.93;2.70;;;;;;;18.52;64.02;101590.41;4976387;28;20046;-87
2022/07/29 08:03:32;;;;;;;5.40;3.10;;;;;;;18.70;62.95;101587.97;4975716;28;20110;-85
2022/07/29 08:05:58;;;;;;;4.70;2.90;;;;;;;18.76;63.49;101585.97;4975577;28;20022;-85
2022/07/29 08:08:23;;;;;;;2.97;2.57;;;;;;;18.98;61.48;101586.06;4976355;28;20034;-85
2022/07/29 08:10:51;;;;;;;4.30;2.60;;;;;;;19.18;62.37;101584.41;4974397;28;20476;-85
2022/07/29 08:13:18;;;;;;;2.25;2.00;;;;;;;19.37;61.51;101591.56;4975938;28;20035;-85
2022/07/29 08:15:45;;;;;;;2.53;2.20;;;;;;;19.50;61.79;101590.16;4975740;28;20027;-85
2022/07/29 08:18:10;;;;;;;2.13;1.80;;;;;;;19.69;60.23;101592.88;4975054;28;20027;-86
2022/07/29 08:20:38;;;;;;;1.80;1.70;;;;;;;19.85;61.00;101590.44;4976632;28;20037;-87
2022/07/29 08:23:05;;;;;;;1.75;1.65;;;;;;;20.06;61.03;101595.75;4976187;28;20399;-88
2022/07/29 08:25:31;;;;;;;2.22;2.03;;;;;;;20.25;60.27;101598.44;4975716;28;20423;-87
2022/07/29 08:27:56;;;;;;;2.20;2.00;;;;;;;20.44;59.44;101589.69;4975846;28;20039;-87
2022/07/29 08:30:22;;;;;;;2.70;2.07;;;;;;;20.58;59.66;101589.09;4974807;28;20033;-85
2022/07/29 08:32:49;;;;;;;2.93;2.07;;;;;;;20.73;57.72;101596.28;4975459;28;20031;-86
2022/07/29 08:35:14;;;;;;;2.55;2.30;;;;;;;20.76;55.68;101596.19;4975925;28;20030;-85
2022/07/29 08:37:39;;;;;;;3.50;2.40;;;;;;;20.79;58.15;101593.41;4975168;28;20026;-85
2022/07/29 08:40:06;;;;;;;2.97;2.13;;;;;;;20.90;57.75;101590.25;4975392;28;20027;-84
2022/07/29 08:42:31;;;;;;;3.15;2.20;;;;;;;21.01;57.04;101596.78;4975054;28;20551;-85
2022/07/29 08:44:57;;;;;;;1.87;1.77;;;;;;;21.13;58.38;101598.84;4974354;28;20134;-85
2022/07/29 08:47:26;;;;;;;1.73;1.50;;;;;;;21.38;57.80;101597.66;4975856;28;20157;-88
2022/07/29 08:49:51;;;;;;;1.85;1.73;;;;;;;21.55;56.52;101596.84;4976359;28;20123;-90
2022/07/29 08:52:17;;;;;;;2.00;1.90;;;;;;;21.58;56.33;101597.53;4976161;28;20199;-88
2022/07/29 08:54:44;;;;;;;3.42;2.35;;;;;;;21.68;55.70;101592.69;4975972;28;20030;-84
2022/07/29 08:57:12;;;;;;;2.05;1.90;;;;;;;21.71;54.07;101591.66;4975072;28;20037;-86
2022/07/29 08:59:42;;;;;;;4.55;1.80;;;;;;;21.83;55.20;101590.22;4974586;28;20046;-86
2022/07/29 09:02:15;;;;;;;1.85;1.75;;;;;;;21.98;55.28;101597.34;4974906;28;20487;-86
2022/07/29 09:04:41;;;;;;;5.13;2.80;;;;;;;22.03;53.29;101597.97;4975442;28;20026;-86
2022/07/29 09:07:07;;;;;;;3.88;2.30;;;;;;;22.00;54.27;101595.47;4974307;28;20026;-88
2022/07/29 09:09:33;;;;;;;1.80;1.70;;;;;;;22.14;54.46;101596.53;4975277;28;20463;-86
2022/07/29 09:11:59;;;;;;;2.55;1.77;;;;;;;22.26;54.25;101595.03;4974537;28;20029;-85
2022/07/29 09:14:24;;;;;;;2.05;1.90;;;;;;;22.34;52.27;101588.41;4974619;28;20427;-85
2022/07/29 09:16:54;;;;;;;2.27;1.80;;;;;;;22.42;51.49;101587.16;4974385;28;20030;-85
2022/07/29 09:19:27;;;;;;;4.60;2.50;;;;;;;22.34;52.13;101588.41;4975022;28;20081;-86
2022/07/29 09:21:59;;;;;;;4.45;2.60;;;;;;;22.40;51.97;101587.22;4974109;28;20058;-86
2022/07/29 09:24:47;;;;;;;4.93;2.33;;;;;;;22.55;51.17;101593.50;4974767;28;20043;-85
2022/07/29 09:27:25;;;;;;;5.28;2.30;;;;;;;22.52;51.86;101593.66;4973873;28;20056;-85
2022/07/29 09:30:05;;;;;;;4.10;2.60;;;;;;;22.63;51.87;101585.16;4974693;28;20034;-86
2022/07/29 09:32:31;;;;;;;4.85;2.50;;;;;;;22.72;52.75;101591.75;4974642;28;20027;-86
2022/07/29 09:35:16;;;;;;;3.83;2.30;;;;;;;22.85;50.28;101595.44;4974147;28;20023;-86
2022/07/29 09:37:42;;;;;;;5.97;2.80;;;;;;;22.93;51.18;101593.22;4974687;28;20039;-85
2022/07/29 09:40:27;;;;;;;2.42;2.20;;;;;;;22.97;52.79;101593.88;4974438;28;20031;-86
2022/07/29 09:42:55;;;;;;;1.95;1.60;;;;;;;23.26;53.34;101604.63;4973608;28;20546;-87
2022/07/29 09:45:26;;;;;;;1.63;1.52;;;;;;;23.52;53.02;101605.81;4974456;28;20498;-86
2022/07/29 09:47:51;;;;;;;1.77;1.67;;;;;;;23.70;48.28;101603.84;4973711;28;20113;-85
2022/07/29 09:50:23;;;;;;;2.63;1.77;;;;;;;23.83;50.63;101596.03;4974866;28;20452;-85
2022/07/29 09:52:50;;;;;;;1.52;1.42;;;;;;;24.04;50.89;101596.56;4973853;28;20053;-86
2022/07/29 09:55:17;;;;;;;1.60;1.50;;;;;;;24.23;49.23;101600.78;4973556;28;20110;-86
2022/07/29 09:57:44;;;;;;;1.88;1.77;;;;;;;24.31;49.23;101597.66;4974423;28;20055;-87
2022/07/29 10:00:10;;;;;;;1.60;1.50;;;;;;;24.45;50.01;101594.97;4973950;28;20278;-86
2022/07/29 10:02:38;;;;;;;4.05;2.17;;;;;;;24.57;47.98;101595.16;4973433;28;20027;-86
2022/07/29 10:05:06;;;;;;;1.67;1.58;;;;;;;24.64;48.81;101596.50;4973786;28;20018;-83
2022/07/29 10:07:55;;;;;;;1.67;1.42;;;;;;;24.69;45.26;101591.75;4974150;28;20035;-86
2022/07/29 10:10:22;;;;;;;2.30;2.10;;;;;;;24.52;45.96;101596.31;4973453;28;20027;-85
2022/07/29 10:12:58;;;;;;;2.00;1.80;;;;;;;24.50;48.94;101592.91;4973917;28;20035;-86
2022/07/29 10:15:25;;;;;;;1.52;1.40;;;;;;;24.62;49.30;101595.72;4974226;28;20472;-86
2022/07/29 10:17:52;;;;;;;3.85;1.83;;;;;;;24.72;48.17;101585.41;4973269;28;20018;-85
2022/07/29 10:20:19;;;;;;;1.85;1.75;;;;;;;24.81;48.93;101583.00;4974308;28;20026;-90
2022/07/29 10:22:46;;;;;;;5.13;1.95;;;;;;;24.96;46.28;101588.28;4974063;28;20035;-83
2022/07/29 10:25:13;;;;;;;1.77;1.50;;;;;;;25.06;48.00;101584.09;4973343;28;20101;-86
2022/07/29 10:27:51;;;;;;;2.28;2.00;;;;;;;25.20;45.64;101588.50;4974013;28;20030;-86
2022/07/29 10:30:26;;;;;;;3.72;2.33;;;;;;;25.12;44.49;101586.31;4973187;28;20034;-86
2022/07/29 10:33:02;;;;;;;4.25;2.22;;;;;;;25.08;45.55;101583.97;4973485;28;20034;-86
2022/07/29 10:35:44;;;;;;;2.90;1.83;;;;;;;25.19;46.78;101583.28;4977631;28;20034;-87
2022/07/29 10:38:28;;;;;;;1.85;1.75;;;;;;;25.41;46.67;101590.69;4977324;28;20167;-86
2022/07/29 10:41:28;;;;;;;4.72;2.30;;;;;;;25.44;45.98;101583.38;4977614;28;20113;-86
2022/07/29 10:44:00;;;;;;;3.33;1.90;;;;;;;25.56;44.75;101589.69;4976897;28;20043;-85
2022/07/29 10:46:27;;;;;;;2.13;1.70;;;;;;;25.68;45.47;101590.66;4978571;28;20038;-88
2022/07/29 10:49:07;;;;;;;;;;;;;;;25.80;43.13;101586.31;4977286;28;20371;-88
2022/07/29 10:51:56;;;;;;;2.50;1.90;;;;;;;25.80;44.66;101588.97;4977402;28;19947;-89
2022/07/29 10:54:33;;;;;;;2.10;1.80;;;;;;;25.93;44.31;101590.81;4977946;28;20088;-89
2022/07/29 10:57:25;;;;;;;2.00;1.67;;;;;;;26.04;43.21;101581.13;4977932;28;20165;-88
2022/07/29 11:00:14;;;;;;;2.45;2.00;;;;;;;26.09;43.88;101583.44;4976805;28;20027;-87
2022/07/29 11:02:39;;;;;;;1.70;1.60;;;;;;;26.29;43.53;101581.25;4975803;28;20037;-88
2022/07/29 11:05:08;;;;;;;2.10;1.80;;;;;;;26.34;42.91;101579.09;4977306;28;20113;-87
2022/07/29 11:07:34;;;;;;;3.78;2.10;;;;;;;26.37;42.46;101573.56;4977934;28;20077;-88
2022/07/29 11:10:12;;;;;;;1.80;1.65;;;;;;;26.36;42.51;101580.69;4977546;28;20110;-89
2022/07/29 11:12:37;;;;;;;1.85;1.75;;;;;;;26.48;42.10;101576.31;4977172;28;20096;-91
2022/07/29 11:15:08;;;;;;;1.57;1.47;;;;;;;26.64;40.49;101580.50;4977251;28;20554;-89
2022/07/29 11:17:52;;;;;;;1.90;1.80;;;;;;;26.64;40.09;101581.38;4977444;28;20387;-89
2022/07/29 11:20:45;;;;;;;3.70;2.47;;;;;;;26.58;40.54;101570.31;4977118;28;20399;-88
2022/07/29 11:23:18;;;;;;;2.38;1.60;;;;;;;26.63;40.79;101576.16;4977166;28;20399;-88
2022/07/29 11:25:43;;;;;;;1.77;1.67;;;;;;;26.76;41.13;101570.81;4977560;28;20399;-88
2022/07/29 11:28:19;;;;;;;1.80;1.70;;;;;;;26.79;38.32;101570.63;4976781;28;20031;-88
2022/07/29 11:30:50;;;;;;;3.63;2.17;;;;;;;26.71;40.20;101571.16;4972329;28;20057;-86
2022/07/29 11:33:28;;;;;;;3.22;2.10;;;;;;;26.68;40.47;101569.53;4976667;28;20459;-88
2022/07/29 11:36:14;;;;;;;2.63;2.10;;;;;;;26.75;40.23;101571.75;4977032;28;20030;-89
2022/07/29 11:38:41;;;;;;;3.22;2.10;;;;;;;26.77;40.58;101572.50;4977320;28;20386;-83
2022/07/29 11:41:28;;;;;;;2.67;2.00;;;;;;;26.96;39.17;101564.91;4975358;28;20050;-90
2022/07/29 11:43:57;;;;;;;2.50;1.90;;;;;;;26.91;40.11;101572.34;4975475;28;20484;-85